Arbor Vitae, Wisconsin
Current Conditions -  °F | °C
As of 9:15 AM on Thursday 18 Dec 2014 (Local Time) from KARV Reporting Station
Overcast Overcast  
Wind Chill: 14°   Ceiling: 1100
Heat Index: 22°   Visibility: 10mi
Dew Point: 18°   Wind: 6mph
Humidity: 85%   Direction: 90°E
Pressure: 30.25"   Gusts: NA
Location:  45.9553°N, 89.6779°W
Report Text: KARV 181515Z AUTO 09005KT 10SM OVC011 M06/M08 A3025 RMK AO2 T10571078
Loading
Personal Weather Stations






























Interactive Weather Map New forecast layout! Learn more

10-Day Weather Forecast

Advertisements
Track Severe Weather on mobile